createdAt,value
2022-08-11T00:01:10.519Z,26.15
2022-08-11T00:03:43.507Z,26.12
2022-08-11T00:06:16.840Z,26.13
2022-08-11T00:08:46.528Z,26.13
2022-08-11T00:11:17.241Z,26.11
2022-08-11T00:13:48.086Z,26.02
2022-08-11T00:16:17.636Z,25.97
2022-08-11T00:18:48.395Z,25.98
2022-08-11T00:21:20.826Z,25.97
2022-08-11T00:24:10.665Z,25.89
2022-08-11T00:26:40.106Z,25.87
2022-08-11T00:29:12.703Z,25.84
2022-08-11T00:31:42.359Z,25.78
2022-08-11T00:34:13.743Z,25.72
2022-08-11T00:36:47.860Z,25.69
2022-08-11T00:39:17.423Z,25.63
2022-08-11T00:41:48.352Z,25.58
2022-08-11T00:44:41.173Z,25.56
2022-08-11T00:47:24.948Z,25.52
2022-08-11T00:50:07.824Z,25.48
2022-08-11T00:53:02.024Z,25.45
2022-08-11T00:55:59.273Z,25.36
2022-08-11T00:58:53.478Z,25.25
2022-08-11T01:01:31.624Z,25.21
2022-08-11T01:04:33.842Z,25.19
2022-08-11T01:08:01.806Z,25.14
2022-08-11T01:10:41.117Z,25.09
2022-08-11T01:13:12.497Z,25.06
2022-08-11T01:16:14.649Z,25.02
2022-08-11T01:19:15.373Z,24.96
2022-08-11T01:22:17.536Z,24.92
2022-08-11T01:25:25.806Z,24.90
2022-08-11T01:28:25.366Z,24.81
2022-08-11T01:31:29.332Z,24.74
2022-08-11T01:34:21.226Z,24.77
2022-08-11T01:37:01.922Z,24.73
2022-08-11T01:39:50.689Z,24.69
2022-08-11T01:42:57.056Z,24.62
2022-08-11T01:45:32.043Z,24.57
2022-08-11T01:48:06.608Z,24.53
2022-08-11T01:50:42.929Z,24.49
2022-08-11T01:53:21.127Z,24.47
2022-08-11T01:55:55.198Z,24.41
2022-08-11T01:58:43.622Z,24.38
2022-08-11T02:01:19.530Z,24.31
2022-08-11T02:03:52.541Z,24.30
2022-08-11T02:06:37.553Z,24.25
2022-08-11T02:09:12.877Z,24.23
2022-08-11T02:11:41.125Z,24.17
2022-08-11T02:14:30.698Z,24.10
2022-08-11T02:17:12.928Z,24.05
2022-08-11T02:20:00.272Z,24.09
2022-08-11T02:22:58.548Z,24.06
2022-08-11T02:25:34.178Z,24.00
2022-08-11T02:28:05.919Z,23.97
2022-08-11T02:30:37.917Z,23.94
2022-08-11T02:33:30.572Z,23.88
2022-08-11T02:36:03.953Z,23.83
2022-08-11T02:38:35.733Z,23.80
2022-08-11T02:41:32.136Z,23.82
2022-08-11T02:44:13.516Z,23.80
2022-08-11T02:46:51.174Z,23.77
2022-08-11T02:49:40.421Z,23.71
2022-08-11T02:52:11.806Z,23.73
2022-08-11T02:54:44.927Z,23.69
2022-08-11T02:57:20.748Z,23.63
2022-08-11T02:59:55.478Z,23.61
2022-08-11T03:02:38.524Z,23.56
2022-08-11T03:05:17.174Z,23.54
2022-08-11T03:07:54.167Z,23.50
2022-08-11T03:10:24.992Z,23.47
2022-08-11T03:13:15.641Z,23.45
2022-08-11T03:16:00.725Z,23.45
2022-08-11T03:18:32.405Z,23.39
2022-08-11T03:21:08.872Z,23.38
2022-08-11T03:23:40.487Z,23.36
2022-08-11T03:26:13.014Z,23.33
2022-08-11T03:28:47.454Z,23.32
2022-08-11T03:31:24.870Z,23.30
2022-08-11T03:34:07.995Z,23.32
2022-08-11T03:37:17.865Z,23.26
2022-08-11T03:39:56.279Z,23.27
2022-08-11T03:42:28.278Z,23.24
2022-08-11T03:45:19.948Z,23.23
2022-08-11T03:48:05.269Z,23.20
2022-08-11T03:51:01.098Z,23.20
2022-08-11T03:54:00.193Z,23.20
2022-08-11T03:57:11.309Z,23.18
2022-08-11T04:00:10.265Z,23.12
2022-08-11T04:03:10.585Z,23.10
2022-08-11T04:06:07.374Z,23.04
2022-08-11T04:09:03.079Z,23.04
2022-08-11T04:11:47.300Z,22.98
2022-08-11T04:15:04.765Z,22.97
2022-08-11T04:18:03.013Z,22.94
2022-08-11T04:20:48.202Z,22.91
2022-08-11T04:24:35.833Z,22.92
2022-08-11T04:26:59.159Z,22.90
2022-08-11T04:30:03.450Z,22.85
2022-08-11T04:32:39.796Z,22.75
2022-08-11T04:35:31.116Z,22.74
2022-08-11T04:38:37.720Z,22.76
2022-08-11T04:41:23.061Z,22.79
2022-08-11T04:44:31.912Z,22.76
2022-08-11T04:48:03.542Z,22.81
2022-08-11T04:50:42.519Z,22.81
2022-08-11T04:53:58.353Z,22.85
2022-08-11T04:56:40.365Z,22.87
2022-08-11T04:59:43.498Z,22.93
2022-08-11T05:02:48.733Z,22.96
2022-08-11T05:05:35.776Z,22.98
2022-08-11T05:08:37.921Z,23.07
2022-08-11T05:11:38.812Z,23.13
2022-08-11T05:14:40.108Z,23.21
2022-08-11T05:17:24.109Z,23.27
2022-08-11T05:20:06.057Z,23.29
2022-08-11T05:22:48.492Z,23.31
2022-08-11T05:26:45.171Z,23.29
2022-08-11T05:28:46.040Z,23.35
2022-08-11T05:31:29.074Z,23.32
2022-08-11T05:34:12.997Z,23.46
2022-08-11T05:36:46.385Z,23.60
2022-08-11T05:39:36.375Z,23.67
2022-08-11T05:42:29.604Z,23.76
2022-08-11T05:45:19.456Z,23.78
2022-08-11T05:48:04.093Z,23.72
2022-08-11T05:50:46.191Z,23.90
2022-08-11T05:53:29.495Z,23.98
2022-08-11T05:56:21.167Z,24.14
2022-08-11T05:58:53.118Z,24.26
2022-08-11T06:01:31.110Z,24.41
2022-08-11T06:04:17.314Z,24.47
2022-08-11T06:06:55.631Z,24.59
2022-08-11T06:09:31.579Z,24.66
2022-08-11T06:12:02.848Z,24.79
2022-08-11T06:14:32.553Z,24.89
2022-08-11T06:17:09.048Z,25.02
2022-08-11T06:19:39.308Z,25.10
2022-08-11T06:22:10.669Z,25.28
2022-08-11T06:24:41.114Z,25.38
2022-08-11T06:27:13.376Z,25.48
2022-08-11T06:29:54.762Z,25.52
2022-08-11T06:32:29.765Z,25.74
2022-08-11T06:35:06.117Z,26.01
2022-08-11T06:37:48.584Z,26.09
2022-08-11T06:40:27.416Z,26.21
2022-08-11T06:43:02.243Z,26.38
2022-08-11T06:45:35.246Z,26.46
2022-08-11T06:48:10.253Z,26.57
2022-08-11T06:50:52.207Z,26.65
2022-08-11T06:53:22.569Z,26.80
2022-08-11T06:56:04.367Z,27.09
2022-08-11T06:58:47.130Z,27.27
2022-08-11T07:01:18.460Z,27.35
2022-08-11T07:03:51.505Z,27.43
2022-08-11T07:06:50.149Z,27.01
2022-08-11T07:09:46.428Z,27.50
2022-08-11T07:12:55.723Z,27.89
2022-08-11T07:16:10.469Z,28.14
2022-08-11T07:18:41.198Z,28.15
2022-08-11T07:22:01.631Z,28.49
2022-08-11T07:24:58.704Z,28.38
2022-08-11T07:27:37.476Z,28.78
2022-08-11T07:30:10.170Z,28.94
2022-08-11T07:32:42.254Z,28.83
2022-08-11T07:35:13.765Z,28.75
2022-08-11T07:37:48.009Z,28.89
2022-08-11T07:40:18.150Z,28.71
2022-08-11T07:42:48.241Z,29.30
2022-08-11T07:45:30.219Z,29.56
2022-08-11T07:48:12.204Z,29.87
2022-08-11T07:50:56.303Z,29.77
2022-08-11T07:53:28.397Z,29.57
2022-08-11T07:55:58.182Z,29.68
2022-08-11T07:58:45.462Z,29.25
2022-08-11T08:01:35.304Z,29.08
2022-08-11T08:04:17.305Z,29.44
2022-08-11T08:06:59.282Z,30.01
2022-08-11T08:09:43.840Z,29.98
2022-08-11T08:12:25.780Z,30.23
2022-08-11T08:15:08.241Z,29.76
2022-08-11T08:18:09.905Z,29.78
2022-08-11T08:20:49.932Z,30.02
2022-08-11T08:23:33.310Z,29.30
2022-08-11T08:26:27.127Z,29.75
2022-08-11T08:29:16.619Z,29.98
2022-08-11T08:31:43.525Z,30.42
2022-08-11T08:34:12.996Z,30.72
2022-08-11T08:36:43.015Z,30.81
2022-08-11T08:39:12.591Z,31.14
2022-08-11T08:41:45.331Z,30.63
2022-08-11T08:44:37.219Z,31.01
2022-08-11T08:47:05.385Z,30.76
2022-08-11T08:49:40.376Z,30.98
2022-08-11T08:52:26.257Z,31.06
2022-08-11T08:55:05.521Z,31.71
2022-08-11T08:57:39.370Z,32.21
2022-08-11T09:00:13.914Z,32.21
2022-08-11T09:02:47.116Z,32.44
2022-08-11T09:05:17.613Z,32.38
2022-08-11T09:07:47.546Z,32.24
2022-08-11T09:10:17.355Z,32.44
2022-08-11T09:12:49.718Z,32.28
2022-08-11T09:15:19.635Z,32.26
2022-08-11T09:17:50.535Z,32.68
2022-08-11T09:20:23.923Z,32.96
2022-08-11T09:24:06.369Z,33.25
2022-08-11T09:26:12.790Z,32.98
2022-08-11T09:28:45.009Z,33.05
2022-08-11T09:31:14.889Z,33.15
2022-08-11T09:33:45.376Z,33.52
2022-08-11T09:36:27.834Z,33.23
2022-08-11T09:39:09.979Z,33.22
2022-08-11T09:42:01.550Z,33.63
2022-08-11T09:44:44.884Z,33.94
2022-08-11T09:47:15.586Z,34.38
2022-08-11T09:49:45.439Z,34.43
2022-08-11T09:52:14.938Z,34.65
2022-08-11T09:54:47.932Z,34.92
2022-08-11T09:57:30.363Z,35.15
2022-08-11T10:00:09.479Z,35.50
2022-08-11T10:02:44.442Z,36.29
2022-08-11T10:05:26.729Z,37.33
2022-08-11T10:07:56.212Z,37.11
2022-08-11T10:10:25.708Z,39.52
2022-08-11T10:12:59.840Z,39.60
2022-08-11T10:15:35.301Z,40.43
2022-08-11T10:18:19.398Z,41.62
2022-08-11T10:20:50.331Z,40.09
2022-08-11T10:23:32.312Z,41.68
2022-08-11T10:26:14.278Z,42.49
2022-08-11T10:29:09.651Z,43.14
2022-08-11T10:31:57.757Z,44.00
2022-08-11T10:34:29.442Z,45.50
2022-08-11T10:37:03.136Z,45.07
2022-08-11T10:39:32.746Z,42.89
2022-08-11T10:42:29.976Z,41.45
2022-08-11T10:45:04.382Z,39.51
2022-08-11T10:47:36.695Z,38.92
2022-08-11T10:50:19.843Z,37.81
2022-08-11T10:53:03.369Z,35.84
2022-08-11T10:55:45.360Z,34.73
2022-08-11T10:58:27.542Z,35.08
2022-08-11T11:00:59.462Z,35.40
2022-08-11T11:03:34.606Z,35.03
2022-08-11T11:06:12.646Z,34.89
2022-08-11T11:09:04.145Z,34.48
2022-08-11T11:11:50.566Z,33.32
2022-08-11T11:14:34.911Z,33.06
2022-08-11T11:17:17.721Z,33.32
2022-08-11T11:19:49.750Z,32.93
2022-08-11T11:22:31.727Z,32.70
2022-08-11T11:25:05.468Z,32.30
2022-08-11T11:27:35.653Z,33.01
2022-08-11T11:30:17.161Z,33.24
2022-08-11T11:32:49.789Z,33.41
2022-08-11T11:35:29.276Z,33.46
2022-08-11T11:38:04.908Z,34.00
2022-08-11T11:40:35.151Z,33.92
2022-08-11T11:43:05.230Z,33.65
2022-08-11T11:45:34.967Z,33.82
2022-08-11T11:48:04.800Z,33.62
2022-08-11T11:50:38.215Z,33.72
2022-08-11T11:53:08.633Z,33.81
2022-08-11T11:55:38.237Z,33.11
2022-08-11T11:58:20.253Z,32.22
2022-08-11T12:01:04.168Z,31.97
2022-08-11T12:03:33.718Z,32.29
2022-08-11T12:06:05.868Z,32.86
2022-08-11T12:08:35.696Z,33.53
2022-08-11T12:11:18.651Z,33.66
2022-08-11T12:13:50.279Z,33.71
2022-08-11T12:16:33.192Z,34.26
2022-08-11T12:19:06.467Z,34.40
2022-08-11T12:21:38.725Z,34.75
2022-08-11T12:24:20.972Z,34.92
2022-08-11T12:27:16.330Z,34.97
2022-08-11T12:29:51.577Z,34.79
2022-08-11T12:32:25.269Z,33.78
2022-08-11T12:34:57.262Z,33.06
2022-08-11T12:37:32.369Z,32.37
2022-08-11T12:40:43.427Z,32.86
2022-08-11T12:43:21.204Z,32.61
2022-08-11T12:45:51.980Z,32.57
2022-08-11T12:48:57.873Z,33.00
2022-08-11T12:52:12.225Z,33.30
2022-08-11T12:54:31.879Z,33.43
2022-08-11T12:57:15.565Z,33.94
2022-08-11T13:00:05.961Z,33.83
2022-08-11T13:02:47.963Z,33.52
2022-08-11T13:05:17.709Z,33.80
2022-08-11T13:07:47.899Z,33.58
2022-08-11T13:10:43.626Z,32.98
2022-08-11T13:13:52.705Z,32.28
2022-08-11T13:15:59.924Z,32.58
2022-08-11T13:18:29.438Z,33.33
2022-08-11T13:20:59.092Z,33.26
2022-08-11T13:23:29.659Z,33.90
2022-08-11T13:26:01.955Z,34.28
2022-08-11T13:28:31.477Z,33.73
2022-08-11T13:31:16.157Z,34.00
2022-08-11T13:33:46.465Z,33.57
2022-08-11T13:36:20.726Z,33.22
2022-08-11T13:38:50.263Z,33.16
2022-08-11T13:41:35.417Z,33.73
2022-08-11T13:44:04.880Z,34.43
2022-08-11T13:46:34.735Z,34.93
2022-08-11T13:49:04.587Z,35.03
2022-08-11T13:51:35.201Z,34.96
2022-08-11T13:54:06.326Z,34.41
2022-08-11T13:56:42.209Z,33.90
2022-08-11T13:59:11.694Z,34.30
2022-08-11T14:02:20.193Z,34.27
2022-08-11T14:04:36.176Z,34.19
2022-08-11T14:07:07.902Z,34.56
2022-08-11T14:09:39.543Z,35.08
2022-08-11T14:12:28.351Z,35.19
2022-08-11T14:15:05.816Z,35.09
2022-08-11T14:17:47.838Z,35.29
2022-08-11T14:20:38.110Z,35.28
2022-08-11T14:23:07.019Z,35.36
2022-08-11T14:25:59.697Z,35.16
2022-08-11T14:28:33.940Z,33.75
2022-08-11T14:31:05.489Z,32.93
2022-08-11T14:33:58.168Z,32.97
2022-08-11T14:36:25.800Z,33.46
2022-08-11T14:38:56.259Z,33.41
2022-08-11T14:42:10.087Z,33.45
2022-08-11T14:44:57.689Z,33.47
2022-08-11T14:47:27.180Z,32.76
2022-08-11T14:50:05.003Z,32.85
2022-08-11T14:52:42.092Z,33.35
2022-08-11T14:55:24.608Z,33.09
2022-08-11T14:57:56.557Z,33.49
2022-08-11T15:00:29.074Z,33.44
2022-08-11T15:03:11.187Z,33.06
2022-08-11T15:05:52.375Z,32.69
2022-08-11T15:08:48.787Z,32.38
2022-08-11T15:11:32.089Z,32.53
2022-08-11T15:14:02.345Z,32.39
2022-08-11T15:16:46.902Z,32.79
2022-08-11T15:19:16.407Z,32.45
2022-08-11T15:21:58.359Z,32.87
2022-08-11T15:24:27.981Z,32.67
2022-08-11T15:27:13.005Z,32.59
2022-08-11T15:29:54.965Z,33.11
2022-08-11T15:32:45.330Z,33.38
2022-08-11T15:35:27.280Z,33.27
2022-08-11T15:38:08.366Z,32.99
2022-08-11T15:40:51.952Z,32.98
2022-08-11T15:43:37.004Z,33.23
2022-08-11T15:46:11.186Z,32.92
2022-08-11T15:48:46.305Z,33.24
2022-08-11T15:51:25.160Z,33.52
2022-08-11T15:53:57.031Z,33.54
2022-08-11T15:56:27.463Z,33.76
2022-08-11T15:59:10.542Z,34.27
2022-08-11T16:02:11.793Z,34.24
2022-08-11T16:04:48.553Z,34.09
2022-08-11T16:07:18.785Z,34.04
2022-08-11T16:09:55.000Z,34.06
2022-08-11T16:12:31.132Z,34.02
2022-08-11T16:15:20.291Z,34.07
2022-08-11T16:17:56.042Z,33.75
2022-08-11T16:20:30.137Z,34.01
2022-08-11T16:23:02.540Z,34.23
2022-08-11T16:27:01.681Z,34.05
2022-08-11T16:28:22.166Z,32.73
2022-08-11T16:30:51.667Z,33.05
2022-08-11T16:33:48.361Z,33.30
2022-08-11T16:36:25.909Z,33.57
2022-08-11T16:38:55.634Z,33.86
2022-08-11T16:41:40.784Z,34.06
2022-08-11T16:44:36.864Z,34.03
2022-08-11T16:47:07.467Z,33.45
2022-08-11T16:49:37.832Z,33.25
2022-08-11T16:52:12.213Z,32.77
2022-08-11T16:54:44.573Z,33.03
2022-08-11T16:57:29.704Z,33.14
2022-08-11T16:59:59.565Z,33.49
2022-08-11T17:02:43.899Z,33.32
2022-08-11T17:05:26.788Z,33.23
2022-08-11T17:08:11.616Z,33.28
2022-08-11T17:10:57.754Z,33.28
2022-08-11T17:13:34.399Z,33.03
2022-08-11T17:16:12.819Z,33.06
2022-08-11T17:18:47.148Z,33.04
2022-08-11T17:21:21.861Z,32.69
2022-08-11T17:23:55.103Z,32.73
2022-08-11T17:26:27.338Z,32.78
2022-08-11T17:28:59.850Z,33.00
2022-08-11T17:31:41.797Z,33.10
2022-08-11T17:34:23.779Z,33.16
2022-08-11T17:36:53.354Z,33.17
2022-08-11T17:39:29.226Z,33.25
2022-08-11T17:42:11.361Z,33.34
2022-08-11T17:44:53.406Z,33.38
2022-08-11T17:47:35.424Z,33.42
2022-08-11T17:50:14.667Z,33.45
2022-08-11T17:52:59.499Z,33.41
2022-08-11T17:55:51.734Z,33.38
2022-08-11T17:58:35.298Z,33.37
2022-08-11T18:01:08.831Z,33.28
2022-08-11T18:03:39.577Z,33.23
2022-08-11T18:06:12.943Z,33.09
2022-08-11T18:08:59.065Z,32.93
2022-08-11T18:12:10.544Z,32.87
2022-08-11T18:14:46.251Z,32.86
2022-08-11T18:17:28.208Z,32.82
2022-08-11T18:20:10.163Z,32.75
2022-08-11T18:22:53.599Z,32.70
2022-08-11T18:25:43.268Z,32.63
2022-08-11T18:28:30.939Z,32.54
2022-08-11T18:31:15.002Z,32.51
2022-08-11T18:34:07.844Z,32.37
2022-08-11T18:36:51.854Z,32.33
2022-08-11T18:39:33.869Z,32.27
2022-08-11T18:42:19.554Z,32.19
2022-08-11T18:45:15.476Z,32.12
2022-08-11T18:47:57.456Z,32.08
2022-08-11T18:50:40.179Z,32.04
2022-08-11T18:53:25.981Z,31.93
2022-08-11T18:56:07.929Z,31.85
2022-08-11T18:58:49.956Z,31.43
2022-08-11T19:01:34.508Z,30.81
2022-08-11T19:04:19.182Z,30.63
2022-08-11T19:07:01.488Z,31.04
2022-08-11T19:09:43.530Z,31.25
2022-08-11T19:12:25.503Z,31.35
2022-08-11T19:15:07.602Z,31.41
2022-08-11T19:17:54.132Z,31.38
2022-08-11T19:20:37.682Z,31.34
2022-08-11T19:23:20.767Z,31.26
2022-08-11T19:26:02.721Z,31.06
2022-08-11T19:28:44.759Z,30.97
2022-08-11T19:31:26.731Z,30.77
2022-08-11T19:34:11.317Z,30.66
2022-08-11T19:36:53.272Z,30.58
2022-08-11T19:39:35.532Z,30.57
2022-08-11T19:42:17.540Z,30.58
2022-08-11T19:44:59.492Z,30.64
2022-08-11T19:47:41.444Z,30.63
2022-08-11T19:50:26.205Z,30.47
2022-08-11T19:53:17.195Z,30.45
2022-08-11T19:56:00.173Z,30.52
2022-08-11T19:58:42.148Z,30.50
2022-08-11T20:01:24.146Z,30.46
2022-08-11T20:04:06.122Z,30.37
2022-08-11T20:06:51.090Z,30.34
2022-08-11T20:10:04.931Z,30.27
2022-08-11T20:12:35.018Z,30.23
2022-08-11T20:15:17.048Z,30.22
2022-08-11T20:17:59.094Z,30.20
2022-08-11T20:20:41.397Z,30.10
2022-08-11T20:23:25.960Z,30.06
2022-08-11T20:26:29.788Z,29.98
2022-08-11T20:29:10.083Z,29.84
2022-08-11T20:31:52.041Z,29.76
2022-08-11T20:34:33.998Z,29.66
2022-08-11T20:37:15.965Z,29.64
2022-08-11T20:40:00.494Z,29.57
2022-08-11T20:42:42.674Z,29.58
2022-08-11T20:45:25.160Z,29.63
2022-08-11T20:48:07.625Z,29.66
2022-08-11T20:50:50.241Z,29.64
2022-08-11T20:53:35.971Z,29.63
2022-08-11T20:56:28.969Z,29.58
2022-08-11T20:59:17.386Z,29.52
2022-08-11T21:02:00.599Z,29.45
2022-08-11T21:04:54.502Z,29.44
2022-08-11T21:07:37.115Z,29.38
2022-08-11T21:10:23.308Z,29.25
2022-08-11T21:13:25.476Z,29.24
2022-08-11T21:16:09.286Z,29.16
2022-08-11T21:19:07.196Z,29.13
2022-08-11T21:21:50.169Z,29.11
2022-08-11T21:24:36.951Z,29.09
2022-08-11T21:27:24.748Z,29.04
2022-08-11T21:30:09.575Z,29.02
2022-08-11T21:32:51.528Z,28.98
2022-08-11T21:35:33.474Z,28.95
2022-08-11T21:38:17.287Z,28.89
2022-08-11T21:40:59.877Z,28.84
2022-08-11T21:43:41.860Z,28.80
2022-08-11T21:46:26.446Z,28.75
2022-08-11T21:49:13.790Z,28.74
2022-08-11T21:51:58.097Z,28.72
2022-08-11T21:54:40.311Z,28.75
2022-08-11T21:57:22.295Z,28.77
2022-08-11T22:00:06.690Z,28.71
2022-08-11T22:02:53.439Z,28.69
2022-08-11T22:05:35.825Z,28.66
2022-08-11T22:08:17.880Z,28.64
2022-08-11T22:10:59.821Z,28.63
2022-08-11T22:13:41.786Z,28.56
2022-08-11T22:16:43.737Z,28.54
2022-08-11T22:19:28.428Z,28.53
2022-08-11T22:22:10.385Z,28.46
2022-08-11T22:24:53.561Z,28.36
2022-08-11T22:27:35.537Z,28.35
2022-08-11T22:30:17.493Z,28.25
2022-08-11T22:32:59.496Z,28.18
2022-08-11T22:35:44.508Z,28.15
2022-08-11T22:38:26.448Z,28.15
2022-08-11T22:41:08.400Z,28.12
2022-08-11T22:43:50.390Z,28.01
2022-08-11T22:46:32.348Z,28.01
2022-08-11T22:49:14.316Z,28.02
2022-08-11T22:51:58.849Z,27.97
2022-08-11T22:54:40.790Z,28.01
2022-08-11T22:57:22.748Z,27.97
2022-08-11T23:00:04.689Z,27.90
2022-08-11T23:02:46.708Z,27.89
2022-08-11T23:05:29.356Z,27.87
2022-08-11T23:08:13.950Z,27.79
2022-08-11T23:10:55.899Z,27.71
2022-08-11T23:13:37.876Z,27.68
2022-08-11T23:16:20.142Z,27.66
2022-08-11T23:19:02.135Z,27.66
2022-08-11T23:21:44.419Z,27.55
2022-08-11T23:24:28.989Z,27.52
2022-08-11T23:27:11.089Z,27.49
2022-08-11T23:29:53.036Z,27.40
2022-08-11T23:32:35.646Z,27.33
2022-08-11T23:35:40.062Z,27.28
2022-08-11T23:38:19.567Z,27.22
2022-08-11T23:41:04.114Z,27.22
2022-08-11T23:43:46.111Z,27.17
2022-08-11T23:46:28.050Z,27.13
2022-08-11T23:49:12.140Z,27.05
2022-08-11T23:51:54.536Z,26.93
2022-08-11T23:54:37.575Z,26.96
2022-08-11T23:57:22.427Z,26.96
